Zenith Leader — 2ACU6 — position and weather

sailwx.info

Track history (hours):
 
Tides and Currents Weather Stations Pressure Air Temp Water Temp Dewpoint Dewpoint Depression Visibility Wind Speed Wind Dir Waves Ship Positions

Zenith Leader

Last reported at 2018-May-18 18:08 UTC. Time now 2018-May-23 00:53 UTC.
Position N 34°39' E 139°54'.

Length 200 m; draft 7.6 m.

Type: Cargo ship. MMSI: 235058697.

Date/timePositionNaut miles runAvg speedWind from/ knotsBaromVisibWave heightAir tempDewpointWater temp
2018-May-18 18:08N 34°39' E 139°54'318.4
2018-May-18 17:59N 34°38' E 139°51'  
2018-May-15 14:17N 35°03' E 136°50'0 0.0
2018-May-15 13:59N 35°03' E 136°50'0 0.0
2018-May-15 13:29N 35°03' E 136°50'0 0.0
2018-May-15 12:56N 35°03' E 136°50'0 0.0
2018-May-15 12:29N 35°03' E 136°50'0 0.0
2018-May-15 11:59N 35°03' E 136°50'0 0.0
2018-May-15 11:29N 35°03' E 136°50'0 0.0
2018-May-15 10:59N 35°03' E 136°50'0 0.0
2018-May-15 10:29N 35°03' E 136°50'0 0.0
2018-May-15 09:59N 35°03' E 136°50'0 0.0
2018-May-15 09:29N 35°03' E 136°50'0 0.0
2018-May-15 08:59N 35°03' E 136°50'0 0.0
2018-May-15 08:29N 35°03' E 136°50'0 0.0
2018-May-15 07:59N 35°03' E 136°50'0 0.0
2018-May-15 07:29N 35°03' E 136°50'0 0.0
2018-May-15 06:59N 35°03' E 136°50'0 0.0
2018-May-15 06:29N 35°03' E 136°50'0 0.0
2018-May-15 05:59N 35°03' E 136°50'0 0.0
2018-May-15 05:29N 35°03' E 136°50'0 0.0
2018-May-15 04:59N 35°03' E 136°50'1 1.4
2018-May-15 04:30N 35°02' E 136°50'2 4.6
2018-May-15 04:00N 35°02' E 136°48'0 0.3
2018-May-15 03:29N 35°02' E 136°48'0 0.0
2018-May-15 02:59N 35°02' E 136°48'0 0.0
2018-May-15 02:29N 35°02' E 136°48'0 0.0
2018-May-15 01:59N 35°02' E 136°48'0 0.0
2018-May-15 01:29N 35°02' E 136°48'0 0.0
2018-May-15 00:53N 35°02' E 136°48'0 0.0
2018-May-15 00:29N 35°02' E 136°48'0 0.0
2018-May-14 23:59N 35°02' E 136°48'0 0.0
2018-May-14 23:29N 35°02' E 136°48'0 0.1
2018-May-14 23:00N 35°02' E 136°48'2 3.6
2018-May-14 22:30N 35°00' E 136°47'510.8
2018-May-14 22:00N 34°55' E 136°46'815.8
2018-May-14 21:30N 34°47' E 136°48'917.7
2018-May-14 21:00N 34°40' E 136°53'714.0
2018-May-14 20:31N 34°35' E 136°59'611.0
2018-May-14 19:59N 34°31' E 137°05'5 9.3
2018-May-14 19:27N 34°28' E 137°10'511.2
2018-May-14 19:00N 34°28' E 137°16'611.8
2018-May-14 18:29N 34°27' E 137°23'2216.5
2018-May-14 17:10N 34°26' E 137°50'516.4
2018-May-14 16:50N 34°28' E 137°56'617.0
2018-May-14 16:30N 34°28' E 138°03'916.8
2018-May-14 15:59N 34°29' E 138°13'816.5
2018-May-14 15:30N 34°29' E 138°23'816.3
2018-May-14 15:00N 34°29' E 138°33'815.5
2018-May-14 14:30N 34°29' E 138°42'815.1
2018-May-14 14:00N 34°29' E 138°51'714.5
2018-May-14 13:30N 34°30' E 139°00'714.5
2018-May-14 13:00N 34°33' E 139°09'713.7
2018-May-14 12:30N 34°35' E 139°16'713.7
2018-May-14 12:00N 34°36' E 139°24'813.1
2018-May-14 11:23N 34°42' E 139°31'717.6
2018-May-14 11:01N 34°48' E 139°35'917.8
2018-May-14 10:30N 34°56' E 139°39'816.7
2018-May-14 10:00N 35°04' E 139°43'714.9
2018-May-14 09:30N 35°11' E 139°45'611.3
2018-May-14 09:01N 35°17' E 139°45'612.4
2018-May-14 08:31N 35°22' E 139°42'611.7
2018-May-14 08:00N 35°28' E 139°42'1 2.1
2018-May-14 07:30N 35°28' E 139°41'0 0.0
2018-May-14 07:01N 35°28' E 139°41'0 0.0
2018-May-14 06:30N 35°28' E 139°41'0 0.0
2018-May-14 06:00N 35°28' E 139°41'0 0.0
2018-May-14 05:30N 35°28' E 139°41'0 0.0
2018-May-14 05:00N 35°28' E 139°41'0 0.0
2018-May-14 04:31N 35°28' E 139°41'0 0.0
2018-May-14 04:00N 35°28' E 139°41'0 0.0
2018-May-14 03:30N 35°28' E 139°41'0 0.0
2018-May-14 03:00N 35°28' E 139°41'0 1.0
2018-May-14 02:30N 35°28' E 139°41'3 5.1
2018-May-14 02:00N 35°26' E 139°43'2 4.1
2018-May-14 01:30N 35°25' E 139°41'0 0.3
2018-May-14 01:00N 35°25' E 139°41'0 0.0
2018-May-14 00:30N 35°25' E 139°41'0 0.0
2018-May-14 00:00N 35°25' E 139°41'0 0.0
2018-May-13 23:30N 35°25' E 139°41'0 0.0
2018-May-13 23:00N 35°25' E 139°41'0 0.0
2018-May-13 22:30N 35°25' E 139°41'0 0.9
2018-May-13 22:01N 35°25' E 139°41'3 6.0
2018-May-13 21:30N 35°22' E 139°43'611.2
2018-May-13 21:01N 35°17' E 139°45'611.9
2018-May-13 20:30N 35°11' E 139°47'4 8.9
2018-May-13 20:00N 35°07' E 139°46'611.2
2018-May-13 19:30N 35°02' E 139°43'714.4
2018-May-13 19:00N 34°55' E 139°42'713.9
2018-May-13 18:30N 34°48' E 139°43'2 4.4
2018-May-13 18:00N 34°46' E 139°43'0 0.8
2018-May-13 17:30N 34°46' E 139°43'1 0.9
2018-May-13 16:42N 34°45' E 139°42'0 1.1
2018-May-13 16:16N 34°45' E 139°42'0 1.2
2018-May-13 15:57N 34°45' E 139°42'1 1.7
2018-May-13 15:28N 34°44' E 139°41'1 1.2
2018-May-13 14:55N 34°43' E 139°41'1 1.3
2018-May-13 14:28N 34°43' E 139°41'0 1.0
2018-May-13 13:59N 34°43' E 139°40'1 1.0
2018-May-13 13:28N 34°42' E 139°40'2 1.8
2018-May-13 12:18N 34°40' E 139°40'412.2
2018-May-13 12:00N 34°38' E 139°36'918.8
2018-May-13 11:30N 34°37' E 139°24'1019.6
2018-May-13 11:00N 34°35' E 139°13'918.9
2018-May-13 10:30N 34°31' E 139°03'1018.6
2018-May-13 09:59N 34°26' E 138°52'1518.7
2018-May-13 09:12N 34°20' E 138°36'418.5
2018-May-13 08:59N 34°18' E 138°32'918.3
2018-May-13 08:30N 34°15' E 138°22'27116.9
2018-May-12 16:29N 32°35' E 133°20'7913.6
2018-May-12 10:40N 33°16' E 131°59'1 5.9
2018-May-12 10:29N 33°17' E 131°59'612.3
2018-May-12 09:59N 33°23' E 131°56'817.0
2018-May-12 09:30N 33°30' E 131°52'816.8
2018-May-12 09:00N 33°38' E 131°47'815.7
2018-May-12 08:30N 33°45' E 131°43'815.5
2018-May-12 08:00N 33°51' E 131°38'714.7
2018-May-12 07:30N 33°58' E 131°33'3 5.1
2018-May-12 06:59N 34°00' E 131°34'0 0.0
2018-May-12 06:30N 34°00' E 131°34'0 0.0
2018-May-12 06:00N 34°00' E 131°34'0 0.0
2018-May-12 05:30N 34°00' E 131°34'0 0.0
2018-May-12 05:00N 34°00' E 131°34'0 0.0
2018-May-12 04:30N 34°00' E 131°34'0 0.0
2018-May-12 03:48N 34°00' E 131°34'0 0.0
2018-May-12 03:18N 34°00' E 131°34'0 0.0
2018-May-12 03:00N 34°00' E 131°34'0 0.0
2018-May-12 02:30N 34°00' E 131°34'0 0.0
2018-May-12 01:54N 34°00' E 131°34'0 0.0
2018-May-12 01:12N 34°00' E 131°34'0 0.0
2018-May-12 01:00N 34°00' E 131°34'0 0.0
2018-May-12 00:30N 34°00' E 131°34'0 0.0
2018-May-11 23:48N 34°00' E 131°34'0 0.0
2018-May-11 21:45N 34°00' E 131°34'0 0.0
2018-May-11 21:30N 34°00' E 131°34'0 0.0
2018-May-11 21:00N 34°00' E 131°34'0 0.9
2018-May-11 20:30N 33°60' E 131°33'4 7.4
2018-May-11 20:00N 33°57' E 131°35'612.1
2018-May-11 19:30N 33°53' E 131°41'612.1
2018-May-11 19:00N 33°50' E 131°47'612.2
2018-May-11 18:30N 33°47' E 131°53'816.3
2018-May-11 18:00N 33°43' E 132°02'815.6
2018-May-11 17:28N 33°43' E 132°12'916.4
2018-May-11 16:55N 33°46' E 132°23'614.5
2018-May-11 16:30N 33°50' E 132°28'714.2
2018-May-11 16:00N 33°55' E 132°34'612.1
2018-May-11 15:30N 34°01' E 132°33'613.0
2018-May-11 15:00N 34°03' E 132°26'714.4
2018-May-11 14:30N 34°09' E 132°21'713.3
2018-May-11 14:00N 34°16' E 132°21'5 9.9
2018-May-11 13:30N 34°20' E 132°24'3 6.5
2018-May-11 13:00N 34°19' E 132°28'0 0.2
2018-May-11 12:29N 34°20' E 132°28'0 0.0
2018-May-11 11:59N 34°20' E 132°28'0 0.0
2018-May-11 11:29N 34°20' E 132°28'0 0.0
2018-May-11 10:59N 34°20' E 132°28'0 0.0
2018-May-11 10:29N 34°20' E 132°28'0 0.0
2018-May-11 09:59N 34°20' E 132°28'0 0.0
2018-May-11 09:29N 34°20' E 132°28'0 0.0
2018-May-11 08:59N 34°20' E 132°28'0 0.0
2018-May-11 08:27N 34°20' E 132°28'1 2.4
2018-May-11 08:00N 34°21' E 132°28'1 0.1
2018-May-10 21:59N 34°21' E 132°29'1 1.4
2018-May-10 21:28N 34°21' E 132°28'3 6.9
2018-May-10 21:00N 34°20' E 132°25'510.0
2018-May-10 20:30N 34°16' E 132°21'714.3
2018-May-10 20:00N 34°08' E 132°22'714.8
2018-May-10 19:30N 34°02' E 132°27'613.3
2018-May-10 19:00N 34°00' E 132°34'611.7
2018-May-10 18:30N 33°54' E 132°34'713.9
2018-May-10 18:00N 33°49' E 132°27'713.3
2018-May-10 17:30N 33°44' E 132°23'916.9
2018-May-10 16:58N 33°38' E 132°14'817.2
2018-May-10 16:30N 33°32' E 132°08'917.5
2018-May-10 16:01N 33°26' E 132°01'713.8
2018-May-10 15:28N 33°18' E 131°60'510.1
2018-May-10 14:57N 33°13' E 131°59'4 8.6
2018-May-10 14:29N 33°10' E 132°02'612.6
2018-May-10 14:00N 33°08' E 132°09'914.8
2018-May-10 13:25N 33°02' E 132°17'716.3
2018-May-10 13:00N 32°56' E 132°19'  
Track history (hours):
 
Tides and Currents Weather Stations Pressure Air Temp Water Temp Dewpoint Dewpoint Depression Visibility Wind Speed Wind Dir Waves Ship Positions

Zenith Leader

Last reported at 2018-May-18 18:08 UTC. Time now 2018-May-23 00:53 UTC.
Position N 34°39' E 139°54'.

Length 200 m; draft 7.6 m.

Type: Cargo ship. MMSI: 235058697.

Date/timePositionNaut miles runAvg speedWind from/ knotsBaromVisibWave heightAir tempDewpointWater temp
2018-May-18 18:08N 34°39' E 139°54'318.4
2018-May-18 17:59N 34°38' E 139°51'  
2018-May-15 14:17N 35°03' E 136°50'0 0.0
2018-May-15 13:59N 35°03' E 136°50'0 0.0
2018-May-15 13:29N 35°03' E 136°50'0 0.0
2018-May-15 12:56N 35°03' E 136°50'0 0.0
2018-May-15 12:29N 35°03' E 136°50'0 0.0
2018-May-15 11:59N 35°03' E 136°50'0 0.0
2018-May-15 11:29N 35°03' E 136°50'0 0.0
2018-May-15 10:59N 35°03' E 136°50'0 0.0
2018-May-15 10:29N 35°03' E 136°50'0 0.0
2018-May-15 09:59N 35°03' E 136°50'0 0.0
2018-May-15 09:29N 35°03' E 136°50'0 0.0
2018-May-15 08:59N 35°03' E 136°50'0 0.0
2018-May-15 08:29N 35°03' E 136°50'0 0.0
2018-May-15 07:59N 35°03' E 136°50'0 0.0
2018-May-15 07:29N 35°03' E 136°50'0 0.0
2018-May-15 06:59N 35°03' E 136°50'0 0.0
2018-May-15 06:29N 35°03' E 136°50'0 0.0
2018-May-15 05:59N 35°03' E 136°50'0 0.0
2018-May-15 05:29N 35°03' E 136°50'0 0.0
2018-May-15 04:59N 35°03' E 136°50'1 1.4
2018-May-15 04:30N 35°02' E 136°50'2 4.6
2018-May-15 04:00N 35°02' E 136°48'0 0.3
2018-May-15 03:29N 35°02' E 136°48'0 0.0
2018-May-15 02:59N 35°02' E 136°48'0 0.0
2018-May-15 02:29N 35°02' E 136°48'0 0.0
2018-May-15 01:59N 35°02' E 136°48'0 0.0
2018-May-15 01:29N 35°02' E 136°48'0 0.0
2018-May-15 00:53N 35°02' E 136°48'0 0.0
2018-May-15 00:29N 35°02' E 136°48'0 0.0
2018-May-14 23:59N 35°02' E 136°48'0 0.0
2018-May-14 23:29N 35°02' E 136°48'0 0.1
2018-May-14 23:00N 35°02' E 136°48'2 3.6
2018-May-14 22:30N 35°00' E 136°47'510.8
2018-May-14 22:00N 34°55' E 136°46'815.8
2018-May-14 21:30N 34°47' E 136°48'917.7
2018-May-14 21:00N 34°40' E 136°53'714.0
2018-May-14 20:31N 34°35' E 136°59'611.0
2018-May-14 19:59N 34°31' E 137°05'5 9.3
2018-May-14 19:27N 34°28' E 137°10'511.2
2018-May-14 19:00N 34°28' E 137°16'611.8
2018-May-14 18:29N 34°27' E 137°23'2216.5
2018-May-14 17:10N 34°26' E 137°50'516.4
2018-May-14 16:50N 34°28' E 137°56'617.0
2018-May-14 16:30N 34°28' E 138°03'916.8
2018-May-14 15:59N 34°29' E 138°13'816.5
2018-May-14 15:30N 34°29' E 138°23'816.3
2018-May-14 15:00N 34°29' E 138°33'815.5
2018-May-14 14:30N 34°29' E 138°42'815.1
2018-May-14 14:00N 34°29' E 138°51'714.5
2018-May-14 13:30N 34°30' E 139°00'714.5
2018-May-14 13:00N 34°33' E 139°09'713.7
2018-May-14 12:30N 34°35' E 139°16'713.7
2018-May-14 12:00N 34°36' E 139°24'813.1
2018-May-14 11:23N 34°42' E 139°31'717.6
2018-May-14 11:01N 34°48' E 139°35'917.8
2018-May-14 10:30N 34°56' E 139°39'816.7
2018-May-14 10:00N 35°04' E 139°43'714.9
2018-May-14 09:30N 35°11' E 139°45'611.3
2018-May-14 09:01N 35°17' E 139°45'612.4
2018-May-14 08:31N 35°22' E 139°42'611.7
2018-May-14 08:00N 35°28' E 139°42'1 2.1
2018-May-14 07:30N 35°28' E 139°41'0 0.0
2018-May-14 07:01N 35°28' E 139°41'0 0.0
2018-May-14 06:30N 35°28' E 139°41'0 0.0
2018-May-14 06:00N 35°28' E 139°41'0 0.0
2018-May-14 05:30N 35°28' E 139°41'0 0.0
2018-May-14 05:00N 35°28' E 139°41'0 0.0
2018-May-14 04:31N 35°28' E 139°41'0 0.0
2018-May-14 04:00N 35°28' E 139°41'0 0.0
2018-May-14 03:30N 35°28' E 139°41'0 0.0
2018-May-14 03:00N 35°28' E 139°41'0 1.0
2018-May-14 02:30N 35°28' E 139°41'3 5.1
2018-May-14 02:00N 35°26' E 139°43'2 4.1
2018-May-14 01:30N 35°25' E 139°41'0 0.3
2018-May-14 01:00N 35°25' E 139°41'0 0.0
2018-May-14 00:30N 35°25' E 139°41'0 0.0
2018-May-14 00:00N 35°25' E 139°41'0 0.0
2018-May-13 23:30N 35°25' E 139°41'0 0.0
2018-May-13 23:00N 35°25' E 139°41'0 0.0
2018-May-13 22:30N 35°25' E 139°41'0 0.9
2018-May-13 22:01N 35°25' E 139°41'3 6.0
2018-May-13 21:30N 35°22' E 139°43'611.2
2018-May-13 21:01N 35°17' E 139°45'611.9
2018-May-13 20:30N 35°11' E 139°47'4 8.9
2018-May-13 20:00N 35°07' E 139°46'611.2
2018-May-13 19:30N 35°02' E 139°43'714.4
2018-May-13 19:00N 34°55' E 139°42'713.9
2018-May-13 18:30N 34°48' E 139°43'2 4.4
2018-May-13 18:00N 34°46' E 139°43'0 0.8
2018-May-13 17:30N 34°46' E 139°43'1 0.9
2018-May-13 16:42N 34°45' E 139°42'0 1.1
2018-May-13 16:16N 34°45' E 139°42'0 1.2
2018-May-13 15:57N 34°45' E 139°42'1 1.7
2018-May-13 15:28N 34°44' E 139°41'1 1.2
2018-May-13 14:55N 34°43' E 139°41'1 1.3
2018-May-13 14:28N 34°43' E 139°41'0 1.0
2018-May-13 13:59N 34°43' E 139°40'1 1.0
2018-May-13 13:28N 34°42' E 139°40'2 1.8
2018-May-13 12:18N 34°40' E 139°40'412.2
2018-May-13 12:00N 34°38' E 139°36'918.8
2018-May-13 11:30N 34°37' E 139°24'1019.6
2018-May-13 11:00N 34°35' E 139°13'918.9
2018-May-13 10:30N 34°31' E 139°03'1018.6
2018-May-13 09:59N 34°26' E 138°52'1518.7
2018-May-13 09:12N 34°20' E 138°36'418.5
2018-May-13 08:59N 34°18' E 138°32'918.3
2018-May-13 08:30N 34°15' E 138°22'27116.9
2018-May-12 16:29N 32°35' E 133°20'7913.6
2018-May-12 10:40N 33°16' E 131°59'1 5.9
2018-May-12 10:29N 33°17' E 131°59'612.3
2018-May-12 09:59N 33°23' E 131°56'817.0
2018-May-12 09:30N 33°30' E 131°52'816.8
2018-May-12 09:00N 33°38' E 131°47'815.7
2018-May-12 08:30N 33°45' E 131°43'815.5
2018-May-12 08:00N 33°51' E 131°38'714.7
2018-May-12 07:30N 33°58' E 131°33'3 5.1
2018-May-12 06:59N 34°00' E 131°34'0 0.0
2018-May-12 06:30N 34°00' E 131°34'0 0.0
2018-May-12 06:00N 34°00' E 131°34'0 0.0
2018-May-12 05:30N 34°00' E 131°34'0 0.0
2018-May-12 05:00N 34°00' E 131°34'0 0.0
2018-May-12 04:30N 34°00' E 131°34'0 0.0
2018-May-12 03:48N 34°00' E 131°34'0 0.0
2018-May-12 03:18N 34°00' E 131°34'0 0.0
2018-May-12 03:00N 34°00' E 131°34'0 0.0
2018-May-12 02:30N 34°00' E 131°34'0 0.0
2018-May-12 01:54N 34°00' E 131°34'0 0.0
2018-May-12 01:12N 34°00' E 131°34'0 0.0
2018-May-12 01:00N 34°00' E 131°34'0 0.0
2018-May-12 00:30N 34°00' E 131°34'0 0.0
2018-May-11 23:48N 34°00' E 131°34'0 0.0
2018-May-11 21:45N 34°00' E 131°34'0 0.0
2018-May-11 21:30N 34°00' E 131°34'0 0.0
2018-May-11 21:00N 34°00' E 131°34'0 0.9
2018-May-11 20:30N 33°60' E 131°33'4 7.4
2018-May-11 20:00N 33°57' E 131°35'612.1
2018-May-11 19:30N 33°53' E 131°41'612.1
2018-May-11 19:00N 33°50' E 131°47'612.2
2018-May-11 18:30N 33°47' E 131°53'816.3
2018-May-11 18:00N 33°43' E 132°02'815.6
2018-May-11 17:28N 33°43' E 132°12'916.4
2018-May-11 16:55N 33°46' E 132°23'614.5
2018-May-11 16:30N 33°50' E 132°28'714.2
2018-May-11 16:00N 33°55' E 132°34'612.1
2018-May-11 15:30N 34°01' E 132°33'613.0
2018-May-11 15:00N 34°03' E 132°26'714.4
2018-May-11 14:30N 34°09' E 132°21'713.3
2018-May-11 14:00N 34°16' E 132°21'5 9.9
2018-May-11 13:30N 34°20' E 132°24'3 6.5
2018-May-11 13:00N 34°19' E 132°28'0 0.2
2018-May-11 12:29N 34°20' E 132°28'0 0.0
2018-May-11 11:59N 34°20' E 132°28'0 0.0
2018-May-11 11:29N 34°20' E 132°28'0 0.0
2018-May-11 10:59N 34°20' E 132°28'0 0.0
2018-May-11 10:29N 34°20' E 132°28'0 0.0
2018-May-11 09:59N 34°20' E 132°28'0 0.0
2018-May-11 09:29N 34°20' E 132°28'0 0.0
2018-May-11 08:59N 34°20' E 132°28'0 0.0
2018-May-11 08:27N 34°20' E 132°28'1 2.4
2018-May-11 08:00N 34°21' E 132°28'1 0.1
2018-May-10 21:59N 34°21' E 132°29'1 1.4
2018-May-10 21:28N 34°21' E 132°28'3 6.9
2018-May-10 21:00N 34°20' E 132°25'510.0
2018-May-10 20:30N 34°16' E 132°21'714.3
2018-May-10 20:00N 34°08' E 132°22'714.8
2018-May-10 19:30N 34°02' E 132°27'613.3
2018-May-10 19:00N 34°00' E 132°34'611.7
2018-May-10 18:30N 33°54' E 132°34'713.9
2018-May-10 18:00N 33°49' E 132°27'713.3
2018-May-10 17:30N 33°44' E 132°23'916.9
2018-May-10 16:58N 33°38' E 132°14'817.2
2018-May-10 16:30N 33°32' E 132°08'917.5
2018-May-10 16:01N 33°26' E 132°01'713.8
2018-May-10 15:28N 33°18' E 131°60'510.1
2018-May-10 14:57N 33°13' E 131°59'4 8.6
2018-May-10 14:29N 33°10' E 132°02'612.6
2018-May-10 14:00N 33°08' E 132°09'914.8
2018-May-10 13:25N 33°02' E 132°17'716.3
2018-May-10 13:00N 32°56' E 132°19'  

Dump ship's entire track history